sensor_id;sensor_type;location;lat;lon;timestamp;pressure;altitude;pressure_sealevel;temperature;humidity
53619;BME280;68717;53.040;18.488;2024-02-14T00:00:08;101729.19;;;1.39;100.00
53619;BME280;68717;53.040;18.488;2024-02-14T00:00:42;101729.25;;;1.37;100.00
53619;BME280;68717;53.040;18.488;2024-02-14T00:01:16;101737.19;;;1.37;100.00
53619;BME280;68717;53.040;18.488;2024-02-14T00:01:31;101730.97;;;1.38;100.00
53619;BME280;68717;53.040;18.488;2024-02-14T00:01:45;101724.88;;;1.36;100.00
53619;BME280;68717;53.040;18.488;2024-02-14T00:01:58;101729.25;;;1.37;100.00
53619;BME280;68717;53.040;18.488;2024-02-14T00:02:11;101731.00;;;1.37;100.00
53619;BME280;68717;53.040;18.488;2024-02-14T00:02:24;101730.16;;;1.36;100.00
53619;BME280;68717;53.040;18.488;2024-02-14T00:02:38;101731.00;;;1.37;100.00
53619;BME280;68717;53.040;18.488;2024-02-14T00:02:51;101732.78;;;1.36;100.00
53619;BME280;68717;53.040;18.488;2024-02-14T00:03:04;101738.94;;;1.37;100.00
53619;BME280;68717;53.040;18.488;2024-02-14T00:03:19;101736.28;;;1.37;100.00
53619;BME280;68717;53.040;18.488;2024-02-14T00:03:34;101727.50;;;1.36;100.00
53619;BME280;68717;53.040;18.488;2024-02-14T00:03:49;101733.72;;;1.35;100.00
53619;BME280;68717;53.040;18.488;2024-02-14T00:04:02;101735.44;;;1.36;100.00
53619;BME280;68717;53.040;18.488;2024-02-14T00:04:15;101735.44;;;1.36;100.00
53619;BME280;68717;53.040;18.488;2024-02-14T00:04:28;101733.72;;;1.35;100.00
53619;BME280;68717;53.040;18.488;2024-02-14T00:04:42;101731.09;;;1.35;100.00
53619;BME280;68717;53.040;18.488;2024-02-14T00:04:55;101739.88;;;1.36;100.00
53619;BME280;68717;53.040;18.488;2024-02-14T00:05:08;101736.38;;;1.35;100.00
53619;BME280;68717;53.040;18.488;2024-02-14T00:05:22;101729.34;;;1.34;100.00
53619;BME280;68717;53.040;18.488;2024-02-14T00:05:37;101731.09;;;1.35;100.00
53619;BME280;68717;53.040;18.488;2024-02-14T00:05:50;101737.25;;;1.34;100.00
53619;BME280;68717;53.040;18.488;2024-02-14T00:06:05;101730.22;;;1.35;100.00
53619;BME280;68717;53.040;18.488;2024-02-14T00:06:18;101727.59;;;1.35;100.00
53619;BME280;68717;53.040;18.488;2024-02-14T00:06:35;101732.88;;;1.35;100.00
53619;BME280;68717;53.040;18.488;2024-02-14T00:06:48;101732.88;;;1.35;100.00
53619;BME280;68717;53.040;18.488;2024-02-14T00:07:01;101731.97;;;1.34;100.00
53619;BME280;68717;53.040;18.488;2024-02-14T00:07:14;101735.50;;;1.35;100.00
53619;BME280;68717;53.040;18.488;2024-02-14T00:07:27;101734.63;;;1.34;100.00
53619;BME280;68717;53.040;18.488;2024-02-14T00:07:41;101730.22;;;1.35;100.00
53619;BME280;68717;53.040;18.488;2024-02-14T00:07:54;101735.50;;;1.35;100.00
53619;BME280;68717;53.040;18.488;2024-02-14T00:08:07;101726.75;;;1.33;100.00
53619;BME280;68717;53.040;18.488;2024-02-14T00:08:20;101730.25;;;1.33;100.00
53619;BME280;68717;53.040;18.488;2024-02-14T00:08:33;101740.84;;;1.33;100.00
53619;BME280;68717;53.040;18.488;2024-02-14T00:08:47;101732.91;;;1.33;100.00
53619;BME280;68717;53.040;18.488;2024-02-14T00:09:00;101727.66;;;1.32;100.00
53619;BME280;68717;53.040;18.488;2024-02-14T00:09:14;101731.16;;;1.32;100.00
53619;BME280;68717;53.040;18.488;2024-02-14T00:09:27;101739.09;;;1.32;100.00
53619;BME280;68717;53.040;18.488;2024-02-14T00:09:40;101732.09;;;1.31;100.00
53619;BME280;68717;53.040;18.488;2024-02-14T00:09:53;101736.44;;;1.32;100.00
53619;BME280;68717;53.040;18.488;2024-02-14T00:10:07;101733.81;;;1.32;100.00
53619;BME280;68717;53.040;18.488;2024-02-14T00:10:20;101738.22;;;1.32;100.00
53619;BME280;68717;53.040;18.488;2024-02-14T00:10:33;101732.94;;;1.32;100.00
53619;BME280;68717;53.040;18.488;2024-02-14T00:10:46;101732.09;;;1.31;100.00
53619;BME280;68717;53.040;18.488;2024-02-14T00:11:01;101735.63;;;1.30;100.00
53619;BME280;68717;53.040;18.488;2024-02-14T00:11:14;101728.59;;;1.31;100.00
53619;BME280;68717;53.040;18.488;2024-02-14T00:11:29;101736.53;;;1.31;100.00
53619;BME280;68717;53.040;18.488;2024-02-14T00:11:43;101734.78;;;1.30;100.00
53619;BME280;68717;53.040;18.488;2024-02-14T00:11:56;101735.63;;;1.30;100.00
53619;BME280;68717;53.040;18.488;2024-02-14T00:12:09;101730.34;;;1.30;100.00
53619;BME280;68717;53.040;18.488;2024-02-14T00:12:24;101733.00;;;1.30;100.00
53619;BME280;68717;53.040;18.488;2024-02-14T00:12:37;101735.63;;;1.30;100.00
53619;BME280;68717;53.040;18.488;2024-02-14T00:12:50;101735.63;;;1.30;100.00
53619;BME280;68717;53.040;18.488;2024-02-14T00:13:05;101729.50;;;1.30;100.00
53619;BME280;68717;53.040;18.488;2024-02-14T00:13:18;101732.13;;;1.30;100.00
53619;BME280;68717;53.040;18.488;2024-02-14T00:13:31;101734.78;;;1.30;100.00
53619;BME280;68717;53.040;18.488;2024-02-14T00:13:46;101739.19;;;1.29;100.00
53619;BME280;68717;53.040;18.488;2024-02-14T00:13:59;101734.78;;;1.30;100.00
53619;BME280;68717;53.040;18.488;2024-02-14T00:14:13;101733.91;;;1.29;100.00
53619;BME280;68717;53.040;18.488;2024-02-14T00:14:26;101735.63;;;1.30;100.00
53619;BME280;68717;53.040;18.488;2024-02-14T00:14:39;101732.16;;;1.28;100.00
53619;BME280;68717;53.040;18.488;2024-02-14T00:14:52;101733.91;;;1.29;100.00
53619;BME280;68717;53.040;18.488;2024-02-14T00:15:07;101733.91;;;1.29;100.00
53619;BME280;68717;53.040;18.488;2024-02-14T00:15:21;101732.13;;;1.30;100.00
53619;BME280;68717;53.040;18.488;2024-02-14T00:15:34;101733.91;;;1.29;100.00
53619;BME280;68717;53.040;18.488;2024-02-14T00:15:47;101737.41;;;1.30;100.00
53619;BME280;68717;53.040;18.488;2024-02-14T00:16:00;101733.91;;;1.29;100.00
53619;BME280;68717;53.040;18.488;2024-02-14T00:16:13;101737.44;;;1.28;100.00
53619;BME280;68717;53.040;18.488;2024-02-14T00:16:28;101737.44;;;1.28;100.00
53619;BME280;68717;53.040;18.488;2024-02-14T00:16:43;101732.16;;;1.28;100.00
53619;BME280;68717;53.040;18.488;2024-02-14T00:16:56;101734.81;;;1.28;100.00
53619;BME280;68717;53.040;18.488;2024-02-14T00:17:12;101732.16;;;1.28;100.00
53619;BME280;68717;53.040;18.488;2024-02-14T00:17:25;101734.81;;;1.28;100.00
53619;BME280;68717;53.040;18.488;2024-02-14T00:17:38;101732.25;;;1.27;100.00
53619;BME280;68717;53.040;18.488;2024-02-14T00:17:51;101731.31;;;1.28;100.00
53619;BME280;68717;53.040;18.488;2024-02-14T00:18:05;101730.47;;;1.27;100.00
53619;BME280;68717;53.040;18.488;2024-02-14T00:18:18;101735.75;;;1.27;100.00
53619;BME280;68717;53.040;18.488;2024-02-14T00:18:33;101730.47;;;1.27;100.00
53619;BME280;68717;53.040;18.488;2024-02-14T00:18:48;101740.16;;;1.27;100.00
53619;BME280;68717;53.040;18.488;2024-02-14T00:19:01;101740.16;;;1.27;100.00
53619;BME280;68717;53.040;18.488;2024-02-14T00:19:15;101738.38;;;1.27;100.00
53619;BME280;68717;53.040;18.488;2024-02-14T00:19:29;101744.59;;;1.26;100.00
53619;BME280;68717;53.040;18.488;2024-02-14T00:19:42;101732.28;;;1.25;100.00
53619;BME280;68717;53.040;18.488;2024-02-14T00:19:56;101733.22;;;1.24;100.00
53619;BME280;68717;53.040;18.488;2024-02-14T00:20:10;101736.75;;;1.23;100.00
53619;BME280;68717;53.040;18.488;2024-02-14T00:20:25;101733.22;;;1.24;100.00
53619;BME280;68717;53.040;18.488;2024-02-14T00:20:40;101731.47;;;1.23;100.00
53619;BME280;68717;53.040;18.488;2024-02-14T00:20:53;101735.84;;;1.24;100.00
53619;BME280;68717;53.040;18.488;2024-02-14T00:21:07;101732.38;;;1.22;100.00
53619;BME280;68717;53.040;18.488;2024-02-14T00:21:20;101735.88;;;1.23;100.00
53619;BME280;68717;53.040;18.488;2024-02-14T00:21:33;101735.03;;;1.22;100.00
53619;BME280;68717;53.040;18.488;2024-02-14T00:21:48;101737.69;;;1.22;100.00
53619;BME280;68717;53.040;18.488;2024-02-14T00:22:02;101734.16;;;1.22;100.00
53619;BME280;68717;53.040;18.488;2024-02-14T00:22:15;101738.56;;;1.21;100.00
53619;BME280;68717;53.040;18.488;2024-02-14T00:22:29;101729.78;;;1.20;100.00
53619;BME280;68717;53.040;18.488;2024-02-14T00:22:43;101728.00;;;1.21;100.00
53619;BME280;68717;53.040;18.488;2024-02-14T00:22:56;101734.16;;;1.22;100.00
53619;BME280;68717;53.040;18.488;2024-02-14T00:23:09;101730.66;;;1.21;100.00
53619;BME280;68717;53.040;18.488;2024-02-14T00:23:22;101728.94;;;1.20;100.00
53619;BME280;68717;53.040;18.488;2024-02-14T00:23:35;101735.13;;;1.19;100.00
53619;BME280;68717;53.040;18.488;2024-02-14T00:23:48;101744.78;;;1.20;100.00
53619;BME280;68717;53.040;18.488;2024-02-14T00:24:01;101735.13;;;1.19;100.00
53619;BME280;68717;53.040;18.488;2024-02-14T00:24:15;101739.53;;;1.18;100.00
53619;BME280;68717;53.040;18.488;2024-02-14T00:24:28;101736.03;;;1.18;100.00
53619;BME280;68717;53.040;18.488;2024-02-14T00:24:43;101739.56;;;1.17;100.00
53619;BME280;68717;53.040;18.488;2024-02-14T00:24:56;101739.56;;;1.17;100.00
53619;BME280;68717;53.040;18.488;2024-02-14T00:25:09;101732.56;;;1.16;100.00
53619;BME280;68717;53.040;18.488;2024-02-14T00:25:23;101742.28;;;1.15;100.00
53619;BME280;68717;53.040;18.488;2024-02-14T00:25:36;101736.13;;;1.15;100.00
53619;BME280;68717;53.040;18.488;2024-02-14T00:25:49;101739.66;;;1.15;100.00
53619;BME280;68717;53.040;18.488;2024-02-14T00:26:03;101739.69;;;1.14;100.00
53619;BME280;68717;53.040;18.488;2024-02-14T00:26:16;101737.91;;;1.14;100.00
53619;BME280;68717;53.040;18.488;2024-02-14T00:26:30;101744.97;;;1.14;100.00
53619;BME280;68717;53.040;18.488;2024-02-14T00:26:44;101745.81;;;1.14;100.00
53619;BME280;68717;53.040;18.488;2024-02-14T00:26:58;101739.69;;;1.14;100.00
53619;BME280;68717;53.040;18.488;2024-02-14T00:27:13;101741.41;;;1.15;100.00
53619;BME280;68717;53.040;18.488;2024-02-14T00:27:27;101741.47;;;1.13;100.00
53619;BME280;68717;53.040;18.488;2024-02-14T00:27:40;101739.69;;;1.14;100.00
53619;BME280;68717;53.040;18.488;2024-02-14T00:27:54;101740.56;;;1.13;100.00
53619;BME280;68717;53.040;18.488;2024-02-14T00:28:07;101736.19;;;1.13;100.00
53619;BME280;68717;53.040;18.488;2024-02-14T00:28:20;101739.72;;;1.12;100.00
53619;BME280;68717;53.040;18.488;2024-02-14T00:28:36;101742.38;;;1.12;100.00
53619;BME280;68717;53.040;18.488;2024-02-14T00:28:50;101741.50;;;1.12;100.00
53619;BME280;68717;53.040;18.488;2024-02-14T00:29:03;101741.50;;;1.12;100.00
53619;BME280;68717;53.040;18.488;2024-02-14T00:29:16;101742.38;;;1.12;100.00
53619;BME280;68717;53.040;18.488;2024-02-14T00:29:29;101738.88;;;1.12;100.00
53619;BME280;68717;53.040;18.488;2024-02-14T00:29:42;101741.50;;;1.12;100.00
53619;BME280;68717;53.040;18.488;2024-02-14T00:29:57;101736.22;;;1.12;100.00
53619;BME280;68717;53.040;18.488;2024-02-14T00:30:12;101742.38;;;1.12;100.00
53619;BME280;68717;53.040;18.488;2024-02-14T00:30:26;101745.88;;;1.13;100.00
53619;BME280;68717;53.040;18.488;2024-02-14T00:30:42;101745.88;;;1.13;100.00
53619;BME280;68717;53.040;18.488;2024-02-14T00:30:55;101742.38;;;1.12;100.00
53619;BME280;68717;53.040;18.488;2024-02-14T00:31:09;101741.50;;;1.12;100.00
53619;BME280;68717;53.040;18.488;2024-02-14T00:31:22;101739.75;;;1.11;100.00
53619;BME280;68717;53.040;18.488;2024-02-14T00:31:35;101744.16;;;1.12;100.00
53619;BME280;68717;53.040;18.488;2024-02-14T00:31:49;101748.50;;;1.13;100.00
53619;BME280;68717;53.040;18.488;2024-02-14T00:32:03;101738.00;;;1.11;100.00
53619;BME280;68717;53.040;18.488;2024-02-14T00:32:16;101739.75;;;1.11;100.00
53619;BME280;68717;53.040;18.488;2024-02-14T00:32:29;101743.28;;;1.11;100.00
53619;BME280;68717;53.040;18.488;2024-02-14T00:32:42;101743.28;;;1.11;100.00
53619;BME280;68717;53.040;18.488;2024-02-14T00:32:56;101744.16;;;1.12;100.00
53619;BME280;68717;53.040;18.488;2024-02-14T00:33:10;101745.03;;;1.11;100.00
53619;BME280;68717;53.040;18.488;2024-02-14T00:33:24;101740.66;;;1.11;100.00
53619;BME280;68717;53.040;18.488;2024-02-14T00:33:39;101741.50;;;1.12;100.00
53619;BME280;68717;53.040;18.488;2024-02-14T00:33:52;101741.50;;;1.12;100.00
53619;BME280;68717;53.040;18.488;2024-02-14T00:34:05;101745.00;;;1.12;100.00
53619;BME280;68717;53.040;18.488;2024-02-14T00:34:19;101741.50;;;1.12;100.00
53619;BME280;68717;53.040;18.488;2024-02-14T00:34:34;101736.22;;;1.12;100.00
53619;BME280;68717;53.040;18.488;2024-02-14T00:34:47;101736.22;;;1.12;100.00
53619;BME280;68717;53.040;18.488;2024-02-14T00:35:00;101739.75;;;1.11;100.00
53619;BME280;68717;53.040;18.488;2024-02-14T00:35:15;101739.75;;;1.11;100.00
53619;BME280;68717;53.040;18.488;2024-02-14T00:35:28;101746.78;;;1.12;100.00
53619;BME280;68717;53.040;18.488;2024-02-14T00:35:42;101735.38;;;1.11;100.00
53619;BME280;68717;53.040;18.488;2024-02-14T00:35:55;101742.41;;;1.11;100.00
53619;BME280;68717;53.040;18.488;2024-02-14T00:36:08;101740.66;;;1.11;100.00
53619;BME280;68717;53.040;18.488;2024-02-14T00:36:21;101739.75;;;1.11;100.00
53619;BME280;68717;53.040;18.488;2024-02-14T00:36:35;101745.03;;;1.11;100.00
53619;BME280;68717;53.040;18.488;2024-02-14T00:36:47;101737.13;;;1.11;100.00
53619;BME280;68717;53.040;18.488;2024-02-14T00:37:00;101738.91;;;1.10;100.00
53619;BME280;68717;53.040;18.488;2024-02-14T00:37:13;101740.69;;;1.10;100.00
53619;BME280;68717;53.040;18.488;2024-02-14T00:37:27;101738.03;;;1.10;100.00
53619;BME280;68717;53.040;18.488;2024-02-14T00:37:41;101738.91;;;1.10;100.00
53619;BME280;68717;53.040;18.488;2024-02-14T00:37:54;101733.63;;;1.10;100.00
53619;BME280;68717;53.040;18.488;2024-02-14T00:38:08;101739.75;;;1.11;100.00
53619;BME280;68717;53.040;18.488;2024-02-14T00:38:21;101738.91;;;1.10;100.00
53619;BME280;68717;53.040;18.488;2024-02-14T00:38:34;101738.03;;;1.10;100.00
53619;BME280;68717;53.040;18.488;2024-02-14T00:38:47;101746.81;;;1.10;100.00
53619;BME280;68717;53.040;18.488;2024-02-14T00:39:00;101743.31;;;1.10;100.00
53619;BME280;68717;53.040;18.488;2024-02-14T00:39:13;101738.03;;;1.10;100.00
53619;BME280;68717;53.040;18.488;2024-02-14T00:39:29;101736.34;;;1.09;100.00
53619;BME280;68717;53.040;18.488;2024-02-14T00:39:42;101736.34;;;1.09;100.00
53619;BME280;68717;53.040;18.488;2024-02-14T00:39:55;101742.47;;;1.09;100.00
53619;BME280;68717;53.040;18.488;2024-02-14T00:40:11;101737.19;;;1.09;100.00
53619;BME280;68717;53.040;18.488;2024-02-14T00:40:24;101742.47;;;1.09;100.00
53619;BME280;68717;53.040;18.488;2024-02-14T00:40:38;101744.19;;;1.10;100.00
53619;BME280;68717;53.040;18.488;2024-02-14T00:40:51;101745.97;;;1.10;100.00
53619;BME280;68717;53.040;18.488;2024-02-14T00:41:04;101743.31;;;1.10;100.00
53619;BME280;68717;53.040;18.488;2024-02-14T00:41:18;101737.19;;;1.09;100.00
53619;BME280;68717;53.040;18.488;2024-02-14T00:41:31;101743.31;;;1.10;100.00
53619;BME280;68717;53.040;18.488;2024-02-14T00:41:46;101742.47;;;1.09;100.00
53619;BME280;68717;53.040;18.488;2024-02-14T00:42:00;101741.63;;;1.09;100.00
53619;BME280;68717;53.040;18.488;2024-02-14T00:42:13;101745.16;;;1.08;100.00
53619;BME280;68717;53.040;18.488;2024-02-14T00:42:26;101745.16;;;1.08;100.00
53619;BME280;68717;53.040;18.488;2024-02-14T00:42:40;101739.88;;;1.08;100.00
53619;BME280;68717;53.040;18.488;2024-02-14T00:42:53;101737.22;;;1.08;100.00
53619;BME280;68717;53.040;18.488;2024-02-14T00:43:07;101742.47;;;1.09;100.00
53619;BME280;68717;53.040;18.488;2024-02-14T00:43:21;101745.16;;;1.08;100.00
53619;BME280;68717;53.040;18.488;2024-02-14T00:43:34;101740.72;;;1.08;100.00
53619;BME280;68717;53.040;18.488;2024-02-14T00:43:47;101741.63;;;1.09;100.00
53619;BME280;68717;53.040;18.488;2024-02-14T00:44:00;101737.22;;;1.08;100.00
53619;BME280;68717;53.040;18.488;2024-02-14T00:44:13;101740.72;;;1.08;100.00
53619;BME280;68717;53.040;18.488;2024-02-14T00:44:28;101735.44;;;1.08;100.00
53619;BME280;68717;53.040;18.488;2024-02-14T00:44:41;101736.34;;;1.09;100.00
53619;BME280;68717;53.040;18.488;2024-02-14T00:44:55;101733.69;;;1.09;100.00
53619;BME280;68717;53.040;18.488;2024-02-14T00:45:09;101738.97;;;1.09;100.00
53619;BME280;68717;53.040;18.488;2024-02-14T00:45:22;101741.63;;;1.09;100.00
53619;BME280;68717;53.040;18.488;2024-02-14T00:45:36;101745.13;;;1.09;100.00
53619;BME280;68717;53.040;18.488;2024-02-14T00:45:50;101739.88;;;1.08;100.00
53619;BME280;68717;53.040;18.488;2024-02-14T00:46:03;101743.38;;;1.08;100.00
53619;BME280;68717;53.040;18.488;2024-02-14T00:46:19;101744.25;;;1.09;100.00
53619;BME280;68717;53.040;18.488;2024-02-14T00:46:33;101741.63;;;1.09;100.00
53619;BME280;68717;53.040;18.488;2024-02-14T00:46:47;101741.63;;;1.09;100.00
53619;BME280;68717;53.040;18.488;2024-02-14T00:47:01;101740.72;;;1.08;100.00
53619;BME280;68717;53.040;18.488;2024-02-14T00:47:15;101744.25;;;1.09;100.00
53619;BME280;68717;53.040;18.488;2024-02-14T00:47:28;101749.53;;;1.09;100.00
53619;BME280;68717;53.040;18.488;2024-02-14T00:47:41;101740.69;;;1.10;100.00
53619;BME280;68717;53.040;18.488;2024-02-14T00:47:54;101746.91;;;1.09;100.00
53619;BME280;68717;53.040;18.488;2024-02-14T00:48:08;101746.91;;;1.09;100.00
53619;BME280;68717;53.040;18.488;2024-02-14T00:48:21;101744.25;;;1.09;100.00
53619;BME280;68717;53.040;18.488;2024-02-14T00:48:34;101738.09;;;1.08;100.00
53619;BME280;68717;53.040;18.488;2024-02-14T00:48:49;101741.63;;;1.09;100.00
53619;BME280;68717;53.040;18.488;2024-02-14T00:49:04;101751.25;;;1.10;100.00
53619;BME280;68717;53.040;18.488;2024-02-14T00:49:17;101743.31;;;1.10;100.00
53619;BME280;68717;53.040;18.488;2024-02-14T00:49:34;101741.63;;;1.09;100.00
53619;BME280;68717;53.040;18.488;2024-02-14T00:49:47;101734.59;;;1.08;100.00
53619;BME280;68717;53.040;18.488;2024-02-14T00:50:01;101743.31;;;1.10;100.00
53619;BME280;68717;53.040;18.488;2024-02-14T00:50:14;101748.66;;;1.08;100.00
53619;BME280;68717;53.040;18.488;2024-02-14T00:50:27;101746.91;;;1.09;100.00
53619;BME280;68717;53.040;18.488;2024-02-14T00:50:40;101746.00;;;1.08;100.00
53619;BME280;68717;53.040;18.488;2024-02-14T00:50:53;101752.19;;;1.09;100.00
53619;BME280;68717;53.040;18.488;2024-02-14T00:51:07;101745.16;;;1.08;100.00
53619;BME280;68717;53.040;18.488;2024-02-14T00:51:21;101745.16;;;1.08;100.00
53619;BME280;68717;53.040;18.488;2024-02-14T00:51:34;101739.88;;;1.08;100.00
53619;BME280;68717;53.040;18.488;2024-02-14T00:51:47;101739.88;;;1.08;100.00
53619;BME280;68717;53.040;18.488;2024-02-14T00:52:01;101746.94;;;1.07;100.00
53619;BME280;68717;53.040;18.488;2024-02-14T00:52:14;101747.78;;;1.08;100.00
53619;BME280;68717;53.040;18.488;2024-02-14T00:52:29;101743.44;;;1.07;100.00
53619;BME280;68717;53.040;18.488;2024-02-14T00:52:42;101747.84;;;1.06;100.00
53619;BME280;68717;53.040;18.488;2024-02-14T00:52:56;101754.00;;;1.07;100.00
53619;BME280;68717;53.040;18.488;2024-02-14T00:53:09;101747.84;;;1.06;100.00
53619;BME280;68717;53.040;18.488;2024-02-14T00:53:22;101746.97;;;1.06;100.00
53619;BME280;68717;53.040;18.488;2024-02-14T00:53:35;101749.56;;;1.07;100.00
53619;BME280;68717;53.040;18.488;2024-02-14T00:53:48;101750.44;;;1.08;100.00
53619;BME280;68717;53.040;18.488;2024-02-14T00:54:01;101748.72;;;1.07;100.00
53619;BME280;68717;53.040;18.488;2024-02-14T00:54:14;101751.41;;;1.05;100.00
53619;BME280;68717;53.040;18.488;2024-02-14T00:54:27;101746.97;;;1.06;100.00
53619;BME280;68717;53.040;18.488;2024-02-14T00:54:40;101746.97;;;1.06;100.00
53619;BME280;68717;53.040;18.488;2024-02-14T00:54:53;101746.97;;;1.06;100.00
53619;BME280;68717;53.040;18.488;2024-02-14T00:55:08;101754.91;;;1.06;100.00
53619;BME280;68717;53.040;18.488;2024-02-14T00:55:21;101744.34;;;1.06;100.00
53619;BME280;68717;53.040;18.488;2024-02-14T00:55:34;101747.91;;;1.05;100.00
53619;BME280;68717;53.040;18.488;2024-02-14T00:55:47;101752.28;;;1.04;100.00
53619;BME280;68717;53.040;18.488;2024-02-14T00:56:00;101751.41;;;1.05;100.00
53619;BME280;68717;53.040;18.488;2024-02-14T00:56:13;101747.91;;;1.05;100.00
53619;BME280;68717;53.040;18.488;2024-02-14T00:56:26;101750.53;;;1.05;100.00
53619;BME280;68717;53.040;18.488;2024-02-14T00:56:39;101751.44;;;1.04;100.00
53619;BME280;68717;53.040;18.488;2024-02-14T00:56:53;101748.78;;;1.04;100.00
53619;BME280;68717;53.040;18.488;2024-02-14T00:57:06;101748.78;;;1.04;100.00
53619;BME280;68717;53.040;18.488;2024-02-14T00:57:19;101748.78;;;1.04;100.00
53619;BME280;68717;53.040;18.488;2024-02-14T00:57:32;101747.94;;;1.03;100.00
53619;BME280;68717;53.040;18.488;2024-02-14T00:57:46;101747.94;;;1.03;100.00
53619;BME280;68717;53.040;18.488;2024-02-14T00:57:58;101747.09;;;1.03;100.00
53619;BME280;68717;53.040;18.488;2024-02-14T00:58:12;101752.38;;;1.03;100.00
53619;BME280;68717;53.040;18.488;2024-02-14T00:58:25;101750.63;;;1.02;100.00
53619;BME280;68717;53.040;18.488;2024-02-14T00:58:39;101747.97;;;1.02;100.00
53619;BME280;68717;53.040;18.488;2024-02-14T00:58:52;101748.84;;;1.02;100.00
53619;BME280;68717;53.040;18.488;2024-02-14T00:59:05;101748.84;;;1.02;100.00
53619;BME280;68717;53.040;18.488;2024-02-14T00:59:18;101747.13;;;1.01;100.00
53619;BME280;68717;53.040;18.488;2024-02-14T00:59:31;101755.00;;;1.03;100.00
53619;BME280;68717;53.040;18.488;2024-02-14T00:59:44;101748.84;;;1.02;100.00
53619;BME280;68717;53.040;18.488;2024-02-14T00:59:58;101753.25;;;1.02;100.00
53619;BME280;68717;53.040;18.488;2024-02-14T01:00:13;101752.38;;;1.03;100.00
53619;BME280;68717;53.040;18.488;2024-02-14T01:00:26;101751.53;;;1.01;100.00
53619;BME280;68717;53.040;18.488;2024-02-14T01:00:39;101750.63;;;1.02;100.00
53619;BME280;68717;53.040;18.488;2024-02-14T01:00:53;101749.75;;;1.01;100.00
53619;BME280;68717;53.040;18.488;2024-02-14T01:01:10;101746.25;;;1.01;100.00
53619;BME280;68717;53.040;18.488;2024-02-14T01:01:24;101751.53;;;1.01;100.00
53619;BME280;68717;53.040;18.488;2024-02-14T01:01:38;101748.91;;;1.01;100.00
53619;BME280;68717;53.040;18.488;2024-02-14T01:01:52;101754.19;;;1.01;100.00
53619;BME280;68717;53.040;18.488;2024-02-14T01:02:05;101751.53;;;1.01;100.00
53619;BME280;68717;53.040;18.488;2024-02-14T01:02:18;101758.59;;;1.00;100.00
53619;BME280;68717;53.040;18.488;2024-02-14T01:02:31;101748.91;;;1.01;100.00
53619;BME280;68717;53.040;18.488;2024-02-14T01:02:44;101754.19;;;1.01;100.00
53619;BME280;68717;53.040;18.488;2024-02-14T01:02:58;101748.91;;;1.01;100.00
53619;BME280;68717;53.040;18.488;2024-02-14T01:03:11;101754.19;;;1.01;100.00
53619;BME280;68717;53.040;18.488;2024-02-14T01:03:26;101755.06;;;0.99;100.00
53619;BME280;68717;53.040;18.488;2024-02-14T01:03:39;101751.53;;;1.01;100.00
53619;BME280;68717;53.040;18.488;2024-02-14T01:03:53;101749.78;;;0.99;100.00
53619;BME280;68717;53.040;18.488;2024-02-14T01:04:06;101755.03;;;1.01;100.00
53619;BME280;68717;53.040;18.488;2024-02-14T01:04:20;101752.44;;;0.99;100.00
53619;BME280;68717;53.040;18.488;2024-02-14T01:04:32;101752.44;;;0.99;100.00
53619;BME280;68717;53.040;18.488;2024-02-14T01:04:48;101754.19;;;1.01;100.00
53619;BME280;68717;53.040;18.488;2024-02-14T01:05:03;101756.81;;;1.01;100.00
53619;BME280;68717;53.040;18.488;2024-02-14T01:05:17;101754.19;;;1.01;100.00
53619;BME280;68717;53.040;18.488;2024-02-14T01:05:33;101748.03;;;1.00;100.00
53619;BME280;68717;53.040;18.488;2024-02-14T01:05:47;101751.53;;;1.01;100.00
53619;BME280;68717;53.040;18.488;2024-02-14T01:06:00;101755.97;;;1.00;100.00
53619;BME280;68717;53.040;18.488;2024-02-14T01:06:14;101758.59;;;1.00;100.00
53619;BME280;68717;53.040;18.488;2024-02-14T01:06:29;101751.53;;;1.01;100.00
53619;BME280;68717;53.040;18.488;2024-02-14T01:06:43;101755.06;;;0.99;100.00
53619;BME280;68717;53.040;18.488;2024-02-14T01:06:57;101753.31;;;1.00;100.00
53619;BME280;68717;53.040;18.488;2024-02-14T01:07:11;101752.44;;;0.99;100.00
53619;BME280;68717;53.040;18.488;2024-02-14T01:07:24;101754.19;;;1.01;100.00
53619;BME280;68717;53.040;18.488;2024-02-14T01:07:37;101756.81;;;1.01;100.00
53619;BME280;68717;53.040;18.488;2024-02-14T01:07:51;101757.72;;;0.99;100.00
53619;BME280;68717;53.040;18.488;2024-02-14T01:08:06;101752.44;;;0.99;100.00
53619;BME280;68717;53.040;18.488;2024-02-14T01:08:20;101757.72;;;0.99;100.00
53619;BME280;68717;53.040;18.488;2024-02-14T01:08:33;101750.72;;;0.98;100.00
53619;BME280;68717;53.040;18.488;2024-02-14T01:08:47;101752.44;;;0.99;100.00
53619;BME280;68717;53.040;18.488;2024-02-14T01:09:00;101757.72;;;0.99;100.00
53619;BME280;68717;53.040;18.488;2024-02-14T01:09:16;101750.72;;;0.98;100.00
53619;BME280;68717;53.040;18.488;2024-02-14T01:09:29;101758.66;;;0.98;100.00
53619;BME280;68717;53.040;18.488;2024-02-14T01:09:42;101756.00;;;0.98;100.00
53619;BME280;68717;53.040;18.488;2024-02-14T01:09:55;101756.00;;;0.98;100.00
53619;BME280;68717;53.040;18.488;2024-02-14T01:10:09;101757.72;;;0.99;100.00
53619;BME280;68717;53.040;18.488;2024-02-14T01:10:22;101758.59;;;1.00;100.00
53619;BME280;68717;53.040;18.488;2024-02-14T01:10:35;101761.28;;;0.98;100.00
53619;BME280;68717;53.040;18.488;2024-02-14T01:10:48;101756.88;;;0.99;100.00
53619;BME280;68717;53.040;18.488;2024-02-14T01:11:03;101756.00;;;0.98;100.00